Wetterdaten: Woche 04.01.10 - 10.01.10 (KW1)
Datum Zeit Temp. A. Feuchte A. Luftdruck Regen Wind Richtung Taupunkt Windchill Windben
04.01.2010 00:00 -4,9 C 91 % 1016,0 hPa 0,0 l/m 0,0 km/h O-SO -6,1 C -4,9 C 0,0 km/h
04.01.2010 01:00 -5,6 C 91 % 1015,4 hPa 0,0 l/m 0,0 km/h O-SO -6,8 C -5,6 C 0,0 km/h
04.01.2010 02:00 -5,8 C 91 % 1014,9 hPa 0,0 l/m 0,0 km/h O-SO -7,0 C -5,8 C 0,0 km/h
04.01.2010 03:00 -6,6 C 91 % 1014,5 hPa 0,0 l/m 0,0 km/h O-SO -7,8 C -6,6 C 0,0 km/h
04.01.2010 04:00 -6,1 C 92 % 1014,5 hPa 0,0 l/m 0,0 km/h O-SO -7,2 C -6,1 C 0,0 km/h
04.01.2010 05:00 -5,9 C 92 % 1014,7 hPa 0,0 l/m 0,0 km/h O-SO -7,0 C -5,9 C 0,0 km/h
04.01.2010 06:00 -5,1 C 91 % 1014,5 hPa 0,0 l/m 6,1 km/h O-SO -6,3 C -5,1 C 6,1 km/h
04.01.2010 07:00 -6,1 C 90 % 1014,3 hPa 0,0 l/m 0,0 km/h O-SO -7,5 C -6,1 C 0,0 km/h
04.01.2010 08:00 -5,5 C 91 % 1014,5 hPa 0,0 l/m 0,0 km/h O-SO -6,7 C -5,5 C 0,0 km/h
04.01.2010 09:00 -4,1 C 89 % 1014,4 hPa 0,0 l/m 0,0 km/h O-SO -5,6 C -4,1 C 0,0 km/h
04.01.2010 10:00 -2,8 C 89 % 1014,4 hPa 0,0 l/m 0,7 km/h O-SO -4,4 C -2,8 C 0,7 km/h
04.01.2010 11:00 -2,4 C 88 % 1013,6 hPa 0,0 l/m 0,0 km/h O-SO -4,1 C -2,4 C 0,0 km/h
04.01.2010 12:00 -2,1 C 87 % 1012,9 hPa 0,0 l/m 0,0 km/h O-SO -4,0 C -2,1 C 0,0 km/h
04.01.2010 13:00 -2,0 C 86 % 1012,4 hPa 0,0 l/m 0,0 km/h O-SO -4,0 C -2,0 C 0,0 km/h
04.01.2010 14:00 -2,1 C 85 % 1011,8 hPa 0,0 l/m 0,0 km/h O-SO -4,3 C -2,1 C 0,0 km/h
04.01.2010 15:00 -2,2 C 86 % 1011,6 hPa 0,0 l/m 0,0 km/h O-SO -4,2 C -2,2 C 0,0 km/h
04.01.2010 16:00 -2,4 C 87 % 1011,8 hPa 0,0 l/m 0,0 km/h O-SO -4,3 C -2,4 C 0,0 km/h
04.01.2010 17:00 -2,6 C 87 % 1011,7 hPa 0,0 l/m 0,0 km/h O-SO -4,5 C -2,6 C 0,0 km/h
04.01.2010 18:00 -2,7 C 87 % 1011,7 hPa 0,0 l/m 0,0 km/h O-SO -4,6 C -2,7 C 0,0 km/h
04.01.2010 19:00 -2,7 C 88 % 1011,6 hPa 0,0 l/m 0,0 km/h O-SO -4,4 C -2,7 C 0,0 km/h
04.01.2010 20:00 -2,8 C 88 % 1011,2 hPa 0,0 l/m 0,0 km/h O-SO -4,5 C -2,8 C 0,0 km/h
04.01.2010 21:00 -2,9 C 88 % 1011,0 hPa 0,0 l/m 0,0 km/h O-SO -4,6 C -2,9 C 0,0 km/h
04.01.2010 22:00 -3,1 C 89 % 1010,5 hPa 0,0 l/m 0,0 km/h O-SO -4,6 C -3,1 C 0,0 km/h
04.01.2010 23:00 -3,3 C 88 % 1010,5 hPa 0,0 l/m 0,0 km/h O-SO -5,0 C -3,3 C 0,0 km/h
05.01.2010 00:00 -3,8 C 86 % 1010,1 hPa 0,0 l/m 0,0 km/h O-SO -5,8 C -3,8 C 0,0 km/h
05.01.2010 01:00 -5,5 C 88 % 1009,4 hPa 0,0 l/m 0,0 km/h O-SO -7,2 C -5,5 C 0,0 km/h
05.01.2010 02:00 -6,2 C 89 % 1008,9 hPa 0,0 l/m 1,4 km/h O-SO -7,7 C -6,2 C 1,4 km/h
05.01.2010 03:00 -5,7 C 89 % 1008,6 hPa 0,0 l/m 0,0 km/h O-SO -7,2 C -5,7 C 0,0 km/h
05.01.2010 04:00 -7,2 C 89 % 1007,7 hPa 0,0 l/m 0,0 km/h O-SO -8,7 C -7,2 C 0,0 km/h
05.01.2010 05:00 -8,2 C 90 % 1007,2 hPa 0,0 l/m 0,0 km/h O-SO -9,5 C -8,2 C 0,0 km/h
05.01.2010 06:00 -7,8 C 90 % 1006,7 hPa 0,0 l/m 0,0 km/h O-SO -9,1 C -7,8 C 0,0 km/h
05.01.2010 07:00 -8,4 C 90 % 1006,0 hPa 0,0 l/m 0,0 km/h O-SO -9,7 C -8,4 C 0,0 km/h
05.01.2010 08:00 -7,6 C 90 % 1006,0 hPa 0,0 l/m 1,4 km/h O-SO -8,9 C -7,6 C 1,4 km/h
05.01.2010 09:00 -6,7 C 90 % 1005,9 hPa 0,0 l/m 0,0 km/h O-SO -8,1 C -6,7 C 0,0 km/h
05.01.2010 10:00 -0,4 C 78 % 1005,1 hPa 0,0 l/m 0,0 km/h O-SO -3,8 C -0,4 C 0,0 km/h
05.01.2010 11:00 0,5 C 70 % 1004,1 hPa 0,0 l/m 0,0 km/h O-SO -4,3 C 0,5 C 0,0 km/h
05.01.2010 12:00 0,2 C 71 % 1003,2 hPa 0,0 l/m 0,0 km/h O-SO -4,4 C 0,2 C 0,0 km/h
05.01.2010 13:00 0,9 C 68 % 1002,5 hPa 0,0 l/m 0,0 km/h O-SO -4,3 C 0,9 C 0,0 km/h
05.01.2010 14:00 -0,4 C 69 % 1001,7 hPa 0,0 l/m 0,0 km/h O-SO -5,4 C -0,4 C 0,0 km/h
05.01.2010 15:00 -2,3 C 78 % 1001,6 hPa 0,0 l/m 0,0 km/h O-SO -5,6 C -2,3 C 0,0 km/h
05.01.2010 16:00 -3,3 C 85 % 1001,2 hPa 0,0 l/m 0,0 km/h O-SO -5,5 C -3,3 C 0,0 km/h
05.01.2010 17:00 -4,4 C 86 % 1001,1 hPa 0,0 l/m 0,0 km/h O-SO -6,4 C -4,4 C 0,0 km/h
05.01.2010 18:00 -5,1 C 88 % 1001,0 hPa 0,0 l/m 0,0 km/h O-SO -6,8 C -5,1 C 0,0 km/h
05.01.2010 19:00 -4,6 C 89 % 1000,7 hPa 0,0 l/m 0,0 km/h O-SO -6,1 C -4,6 C 0,0 km/h
05.01.2010 20:00 -3,6 C 88 % 1000,3 hPa 0,0 l/m 1,1 km/h O-SO -5,3 C -3,6 C 1,1 km/h
05.01.2010 21:00 -3,6 C 86 % 1000,2 hPa 0,0 l/m 0,0 km/h O-SO -5,6 C -3,6 C 0,0 km/h
05.01.2010 22:00 -3,4 C 85 % 999,7 hPa 0,0 l/m 0,0 km/h O-SO -5,5 C -3,4 C 0,0 km/h
05.01.2010 23:00 -3,6 C 86 % 999,5 hPa 0,0 l/m 0,0 km/h O-SO -5,6 C -3,6 C 0,0 km/h
06.01.2010 00:00 -3,6 C 86 % 999,0 hPa 0,0 l/m 0,0 km/h O-SO -5,6 C -3,6 C 0,0 km/h
06.01.2010 01:00 -3,4 C 88 % 999,2 hPa 0,0 l/m 0,0 km/h O-SO -5,1 C -3,4 C 0,0 km/h
06.01.2010 02:00 -3,2 C 88 % 998,9 hPa 0,0 l/m 0,0 km/h O-SO -4,9 C -3,2 C 0,0 km/h
06.01.2010 03:00 -3,2 C 88 % 999,6 hPa 0,0 l/m 0,0 km/h O-SO -4,9 C -3,2 C 0,0 km/h
06.01.2010 04:00 -3,4 C 88 % 999,6 hPa 0,0 l/m 0,0 km/h O-SO -5,1 C -3,4 C 0,0 km/h
06.01.2010 05:00 -3,6 C 89 % 999,6 hPa 0,0 l/m 0,0 km/h O-SO -5,1 C -3,6 C 0,0 km/h
06.01.2010 06:00 -3,6 C 90 % 999,9 hPa 0,0 l/m 0,0 km/h O-SO -5,0 C -3,6 C 0,0 km/h
06.01.2010 07:00 -3,6 C 90 % 1000,3 hPa 0,0 l/m 0,0 km/h O-SO -5,0 C -3,6 C 0,0 km/h
06.01.2010 08:00 -3,5 C 90 % 1000,4 hPa 0,0 l/m 0,0 km/h O-SO -4,9 C -3,5 C 0,0 km/h
06.01.2010 09:00 -2,9 C 90 % 1000,8 hPa 0,0 l/m 0,0 km/h O-SO -4,3 C -2,9 C 0,0 km/h
06.01.2010 10:00 -2,6 C 89 % 1001,3 hPa 0,0 l/m 0,0 km/h O-SO -4,2 C -2,6 C 0,0 km/h
06.01.2010 11:00 -2,1 C 88 % 1000,9 hPa 0,0 l/m 0,0 km/h O-SO -3,8 C -2,1 C 0,0 km/h
06.01.2010 12:00 -1,1 C 86 % 1000,7 hPa 0,0 l/m 0,0 km/h O-SO -3,1 C -1,1 C 0,0 km/h
06.01.2010 13:00 -1,0 C 84 % 1000,7 hPa 0,0 l/m 0,0 km/h O-SO -3,4 C -1,0 C 0,0 km/h
06.01.2010 14:00 -1,1 C 85 % 1001,0 hPa 0,0 l/m 0,0 km/h O-SO -3,3 C -1,1 C 0,0 km/h
06.01.2010 15:00 -1,1 C 85 % 1001,4 hPa 0,0 l/m 0,0 km/h O-SO -3,3 C -1,1 C 0,0 km/h
06.01.2010 16:00 -1,9 C 87 % 1001,6 hPa 0,0 l/m 0,0 km/h O-SO -3,8 C -1,9 C 0,0 km/h
06.01.2010 17:00 -2,2 C 88 % 1001,8 hPa 0,0 l/m 0,0 km/h O-SO -3,9 C -2,2 C 0,0 km/h
06.01.2010 18:00 -2,1 C 89 % 1002,2 hPa 0,0 l/m 0,0 km/h O-SO -3,7 C -2,1 C 0,0 km/h
06.01.2010 19:00 -2,3 C 87 % 1002,6 hPa 0,0 l/m 0,0 km/h O-SO -4,2 C -2,3 C 0,0 km/h
06.01.2010 20:00 -3,1 C 86 % 1003,0 hPa 0,0 l/m 0,0 km/h O-SO -5,1 C -3,1 C 0,0 km/h
06.01.2010 21:00 -2,7 C 87 % 1003,3 hPa 0,0 l/m 0,0 km/h O-SO -4,6 C -2,7 C 0,0 km/h
06.01.2010 22:00 -3,2 C 89 % 1003,6 hPa 0,0 l/m 0,0 km/h O-SO -4,7 C -3,2 C 0,0 km/h
06.01.2010 23:00 -2,7 C 90 % 1004,1 hPa 0,0 l/m 0,0 km/h O-SO -4,1 C -2,7 C 0,0 km/h
07.01.2010 00:00 -3,0 C 90 % 1004,2 hPa 0,0 l/m 0,0 km/h O-SO -4,4 C -3,0 C 0,0 km/h
07.01.2010 01:00 -3,0 C 90 % 1004,2 hPa 0,0 l/m 0,0 km/h O-SO -4,4 C -3,0 C 0,0 km/h
07.01.2010 02:00 -2,7 C 90 % 1004,4 hPa 0,0 l/m 0,0 km/h O-SO -4,1 C -2,7 C 0,0 km/h
07.01.2010 03:00 -3,1 C 90 % 1004,2 hPa 0,0 l/m 0,0 km/h O-SO -4,5 C -3,1 C 0,0 km/h
07.01.2010 04:00 -4,9 C 90 % 1004,2 hPa 0,0 l/m 0,0 km/h O-SO -6,3 C -4,9 C 0,0 km/h
07.01.2010 05:00 -5,5 C 92 % 1004,4 hPa 0,0 l/m 0,0 km/h O-SO -6,6 C -5,5 C 0,0 km/h
07.01.2010 06:00 -5,9 C 91 % 1004,8 hPa 0,0 l/m 0,0 km/h O-SO -7,1 C -5,9 C 0,0 km/h
07.01.2010 07:00 -6,6 C 92 % 1004,8 hPa 0,0 l/m 0,0 km/h O-SO -7,7 C -6,6 C 0,0 km/h
07.01.2010 08:00 -6,7 C 92 % 1005,5 hPa 0,0 l/m 0,0 km/h O-SO -7,8 C -6,7 C 0,0 km/h
07.01.2010 09:00 -4,1 C 93 % 1006,1 hPa 0,0 l/m 0,0 km/h O-SO -5,1 C -4,1 C 0,0 km/h
07.01.2010 10:00 -1,3 C 90 % 1006,6 hPa 0,0 l/m 0,0 km/h O-SO -2,7 C -1,3 C 0,0 km/h
07.01.2010 11:00 0,1 C 83 % 1006,7 hPa 0,0 l/m 0,0 km/h O-SO -2,4 C 0,1 C 0,0 km/h
07.01.2010 12:00 0,9 C 78 % 1006,2 hPa 0,0 l/m 0,0 km/h S-SW -2,5 C 0,9 C 0,0 km/h
07.01.2010 13:00 0,7 C 81 % 1006,0 hPa 0,0 l/m 0,0 km/h S-SW -2,2 C 0,7 C 0,0 km/h
07.01.2010 14:00 -0,1 C 84 % 1006,4 hPa 0,0 l/m 0,0 km/h S-SW -2,5 C -0,1 C 0,0 km/h
07.01.2010 15:00 0,1 C 83 % 1006,8 hPa 0,0 l/m 0,0 km/h S-SW -2,4 C 0,1 C 0,0 km/h
07.01.2010 16:00 -1,1 C 86 % 1007,3 hPa 0,0 l/m 0,0 km/h S-SW -3,1 C -1,1 C 0,0 km/h
07.01.2010 17:00 -1,2 C 88 % 1007,6 hPa 0,0 l/m 0,0 km/h S-SW -2,9 C -1,2 C 0,0 km/h
07.01.2010 18:00 -1,1 C 89 % 1008,0 hPa 0,0 l/m 0,0 km/h S-SW -2,7 C -1,1 C 0,0 km/h
07.01.2010 19:00 -1,4 C 90 % 1008,6 hPa 0,0 l/m 0,0 km/h S-SW -2,8 C -1,4 C 0,0 km/h
07.01.2010 20:00 -1,4 C 90 % 1008,7 hPa 0,0 l/m 0,0 km/h S-SW -2,8 C -1,4 C 0,0 km/h
07.01.2010 21:00 -1,4 C 91 % 1008,9 hPa 0,0 l/m 0,0 km/h S-SW -2,7 C -1,4 C 0,0 km/h
07.01.2010 22:00 -1,4 C 91 % 1009,2 hPa 0,0 l/m 0,0 km/h S-SW -2,7 C -1,4 C 0,0 km/h
07.01.2010 23:00 -1,5 C 91 % 1009,3 hPa 0,0 l/m 0,0 km/h S-SW -2,8 C -1,5 C 0,0 km/h
08.01.2010 00:00 -1,6 C 92 % 1009,4 hPa 0,0 l/m 0,0 km/h S-SW -2,7 C -1,6 C 0,0 km/h
08.01.2010 01:00 -1,7 C 93 % 1008,9 hPa 0,0 l/m 0,0 km/h S-SW -2,7 C -1,7 C 0,0 km/h
08.01.2010 02:00 -1,7 C 93 % 1009,0 hPa 0,0 l/m 0,0 km/h S-SW -2,7 C -1,7 C 0,0 km/h
08.01.2010 03:00 -1,9 C 93 % 1008,5 hPa 0,0 l/m 0,0 km/h S-SW -2,9 C -1,9 C 0,0 km/h
08.01.2010 04:00 -2,1 C 93 % 1008,4 hPa 0,0 l/m 0,0 km/h S-SW -3,1 C -2,1 C 0,0 km/h
08.01.2010 05:00 -2,4 C 93 % 1007,9 hPa 0,0 l/m 0,0 km/h S-SW -3,4 C -2,4 C 0,0 km/h
08.01.2010 06:00 -2,6 C 93 % 1007,4 hPa 0,0 l/m 0,0 km/h S-SW -3,6 C -2,6 C 0,0 km/h
08.01.2010 07:00 -2,6 C 93 % 1007,4 hPa 0,0 l/m 0,0 km/h S-SW -3,6 C -2,6 C 0,0 km/h
08.01.2010 08:00 -2,5 C 93 % 1007,1 hPa 0,0 l/m 0,0 km/h S-SW -3,5 C -2,5 C 0,0 km/h
08.01.2010 09:00 -1,9 C 93 % 1006,7 hPa 0,0 l/m 0,0 km/h S-SW -2,9 C -1,9 C 0,0 km/h
08.01.2010 10:00 -0,1 C 89 % 1006,4 hPa 0,0 l/m 3,2 km/h S-SW -1,7 C -0,1 C 3,2 km/h
08.01.2010 11:00 0,6 C 81 % 1005,7 hPa 0,0 l/m 4,3 km/h N-NO -2,3 C 0,6 C 4,3 km/h
08.01.2010 12:00 1,1 C 78 % 1004,9 hPa 0,0 l/m 0,0 km/h N -2,3 C 1,1 C 0,0 km/h
08.01.2010 13:00 0,8 C 77 % 1004,5 hPa 0,0 l/m 0,0 km/h N-NO -2,8 C 0,8 C 0,0 km/h
08.01.2010 14:00 0,3 C 79 % 1004,2 hPa 0,0 l/m 0,7 km/h N-NO -2,9 C 0,3 C 0,7 km/h
08.01.2010 15:00 -0,9 C 81 % 1004,5 hPa 0,0 l/m 9,7 km/h N-NO -3,7 C -4,2 C 9,7 km/h
08.01.2010 16:00 -1,7 C 83 % 1004,9 hPa 0,0 l/m 4,7 km/h N-NO -4,2 C -1,7 C 4,7 km/h
08.01.2010 17:00 -1,9 C 82 % 1005,4 hPa 0,0 l/m 0,4 km/h N-NO -4,6 C -1,9 C 0,4 km/h
08.01.2010 18:00 -2,7 C 88 % 1005,7 hPa 0,0 l/m 0,0 km/h N-NO -4,4 C -2,7 C 0,0 km/h
08.01.2010 19:00 -2,9 C 89 % 1005,7 hPa 0,0 l/m 0,0 km/h N-NO -4,5 C -2,9 C 0,0 km/h
08.01.2010 20:00 -3,2 C 90 % 1005,8 hPa 0,0 l/m 0,0 km/h N-NO -4,6 C -3,2 C 0,0 km/h
08.01.2010 21:00 -3,5 C 89 % 1005,6 hPa 0,0 l/m 6,1 km/h N-NO -5,0 C -3,5 C 6,1 km/h
08.01.2010 22:00 -3,9 C 90 % 1005,9 hPa 0,0 l/m 12,6 km/h N-NO -5,3 C -10,0 C 12,6 km/h
08.01.2010 23:00 -4,1 C 89 % 1005,9 hPa 0,0 l/m 5,0 km/h N-NO -5,6 C -4,1 C 5,0 km/h
09.01.2010 00:00 -4,1 C 88 % 1006,3 hPa 0,0 l/m 0,0 km/h N-NO -5,8 C -4,1 C 0,0 km/h
09.01.2010 01:00 -3,9 C 85 % 1005,9 hPa 0,0 l/m 9,7 km/h N-NO -6,0 C -7,5 C 9,7 km/h
09.01.2010 02:00 -3,6 C 81 % 1006,4 hPa 0,0 l/m 0,0 km/h N-NO -6,4 C -3,6 C 0,0 km/h
09.01.2010 03:00 -3,9 C 81 % 1005,8 hPa 0,0 l/m 0,0 km/h N-NO -6,7 C -3,9 C 0,0 km/h
09.01.2010 04:00 -3,9 C 80 % 1005,5 hPa 0,0 l/m 0,0 km/h N-NO -6,8 C -3,9 C 0,0 km/h
09.01.2010 05:00 -4,6 C 84 % 1005,2 hPa 0,0 l/m 0,0 km/h N-NO -6,9 C -4,6 C 0,0 km/h
09.01.2010 06:00 -4,8 C 87 % 1005,0 hPa 0,0 l/m 0,0 km/h N-NO -6,6 C -4,8 C 0,0 km/h
09.01.2010 07:00 -4,1 C 83 % 1004,6 hPa 0,0 l/m 0,0 km/h N-NO -6,5 C -4,1 C 0,0 km/h
09.01.2010 08:00 -3,7 C 81 % 1004,9 hPa 0,0 l/m 5,4 km/h N-NO -6,5 C -3,7 C 5,4 km/h
09.01.2010 09:00 -3,3 C 80 % 1005,0 hPa 0,0 l/m 0,0 km/h N-NO -6,2 C -3,3 C 0,0 km/h
09.01.2010 10:00 -2,7 C 79 % 1005,0 hPa 0,0 l/m 3,2 km/h N-NO -5,8 C -2,7 C 3,2 km/h
09.01.2010 11:00 -2,1 C 76 % 1004,5 hPa 0,0 l/m 8,6 km/h N-NO -5,7 C -4,5 C 8,6 km/h
09.01.2010 12:00 -2,4 C 77 % 1004,6 hPa 0,0 l/m 1,1 km/h N-NO -5,9 C -2,4 C 1,1 km/h
09.01.2010 13:00 -2,2 C 76 % 1003,7 hPa 0,0 l/m 4,7 km/h N-NO -5,8 C -2,2 C 4,7 km/h
09.01.2010 14:00 -2,6 C 77 % 1003,9 hPa 0,0 l/m 0,0 km/h N-NO -6,1 C -2,6 C 0,0 km/h
09.01.2010 15:00 -2,9 C 78 % 1004,0 hPa 0,0 l/m 3,6 km/h N-NO -6,2 C -2,9 C 3,6 km/h
09.01.2010 16:00 -3,2 C 79 % 1004,3 hPa 0,0 l/m 0,0 km/h N-NO -6,3 C -3,2 C 0,0 km/h
09.01.2010 17:00 -3,4 C 81 % 1004,6 hPa 0,0 l/m 0,0 km/h N-NO -6,2 C -3,4 C 0,0 km/h
09.01.2010 18:00 -3,2 C 82 % 1004,5 hPa 0,0 l/m 3,2 km/h N-NO -5,8 C -3,2 C 3,2 km/h
09.01.2010 19:00 -3,6 C 84 % 1004,6 hPa 0,0 l/m 0,0 km/h N-NO -5,9 C -3,6 C 0,0 km/h
09.01.2010 20:00 -3,6 C 86 % 1004,8 hPa 0,0 l/m 0,0 km/h N-NO -5,6 C -3,6 C 0,0 km/h
09.01.2010 21:00 -3,7 C 87 % 1005,2 hPa 0,0 l/m 0,0 km/h N-NO -5,5 C -3,7 C 0,0 km/h
09.01.2010 22:00 -3,8 C 89 % 1005,3 hPa 0,0 l/m 0,0 km/h N-NO -5,3 C -3,8 C 0,0 km/h
09.01.2010 23:00 -3,9 C 89 % 1005,6 hPa 0,0 l/m 0,0 km/h N-NO -5,4 C -3,9 C 0,0 km/h
10.01.2010 00:00 -4,1 C 90 % 1005,7 hPa 0,0 l/m 0,0 km/h N-NO -5,5 C -4,1 C 0,0 km/h
10.01.2010 01:00 -4,5 C 90 % 1005,9 hPa 0,0 l/m 0,0 km/h N-NO -5,9 C -4,5 C 0,0 km/h
10.01.2010 02:00 -5,1 C 90 % 1006,7 hPa 0,0 l/m 0,0 km/h N-NO -6,5 C -5,1 C 0,0 km/h
10.01.2010 03:00 -7,7 C 90 % 1006,8 hPa 0,0 l/m 0,0 km/h N-NO -9,0 C -7,7 C 0,0 km/h
10.01.2010 04:00 -7,3 C 91 % 1007,4 hPa 0,0 l/m 0,0 km/h N-NO -8,5 C -7,3 C 0,0 km/h
10.01.2010 05:00 -6,1 C 91 % 1007,8 hPa 0,0 l/m 0,0 km/h N-NO -7,3 C -6,1 C 0,0 km/h
10.01.2010 06:00 -5,6 C 91 % 1008,3 hPa 0,0 l/m 0,0 km/h N-NO -6,8 C -5,6 C 0,0 km/h
10.01.2010 07:00 -5,5 C 91 % 1009,1 hPa 0,0 l/m 0,0 km/h N-NO -6,7 C -5,5 C 0,0 km/h
10.01.2010 08:00 -4,9 C 91 % 1009,8 hPa 0,0 l/m 0,0 km/h N-NO -6,1 C -4,9 C 0,0 km/h
10.01.2010 09:00 -3,6 C 90 % 1010,9 hPa 0,0 l/m 0,0 km/h N-NO -5,0 C -3,6 C 0,0 km/h
10.01.2010 10:00 -2,5 C 88 % 1011,2 hPa 0,0 l/m 0,0 km/h N-NO -4,2 C -2,5 C 0,0 km/h
10.01.2010 11:00 -1,1 C 83 % 1011,7 hPa 0,0 l/m 0,0 km/h N-NO -3,6 C -1,1 C 0,0 km/h
10.01.2010 12:00 -0,4 C 80 % 1011,9 hPa 0,0 l/m 0,0 km/h N-NO -3,4 C -0,4 C 0,0 km/h
10.01.2010 13:00 0,1 C 78 % 1011,8 hPa 0,0 l/m 0,0 km/h N-NO -3,3 C 0,1 C 0,0 km/h
10.01.2010 14:00 -0,2 C 76 % 1012,3 hPa 0,0 l/m 0,0 km/h N-NO -3,9 C -0,2 C 0,0 km/h
10.01.2010 15:00 -1,6 C 79 % 1012,7 hPa 0,0 l/m 0,0 km/h N-NO -4,8 C -1,6 C 0,0 km/h
10.01.2010 16:00 -2,8 C 81 % 1013,2 hPa 0,0 l/m 0,0 km/h N-NO -5,6 C -2,8 C 0,0 km/h
10.01.2010 17:00 -3,0 C 84 % 1013,3 hPa 0,0 l/m 0,0 km/h N-NO -5,3 C -3,0 C 0,0 km/h
10.01.2010 18:00 -3,0 C 84 % 1014,0 hPa 0,0 l/m 0,0 km/h N-NO -5,3 C -3,0 C 0,0 km/h
10.01.2010 19:00 -3,1 C 84 % 1014,2 hPa 0,0 l/m 3,2 km/h N-NO -5,4 C -3,1 C 3,2 km/h
10.01.2010 20:00 -3,6 C 85 % 1014,6 hPa 0,0 l/m 0,0 km/h N-NO -5,7 C -3,6 C 0,0 km/h
10.01.2010 21:00 -3,6 C 86 % 1014,7 hPa 0,0 l/m 0,0 km/h N-NO -5,6 C -3,6 C 0,0 km/h
10.01.2010 22:00 -3,7 C 88 % 1014,6 hPa 0,0 l/m 0,0 km/h N-NO -5,4 C -3,7 C 0,0 km/h
10.01.2010 23:00 -3,7 C 88 % 1014,6 hPa 0,0 l/m 0,0 km/h N-NO -5,4 C -3,7 C 0,0 km/h
Min-Datum _ 05.01.10 05.01.10 06.01.10 - 04.01.10 - 05.01.10 08.01.10 04.01.10
_ Min-Zeit 07:53 13:53 02:53 - 00:53 - 07:53 22:53 00:53
Minimum _ -8,4 C 68 % 998,9 hPa - 0,0 km/h - -9,7 C -10,0 C 0,0 km/h
Max-Datum _ 08.01.10 07.01.10 04.01.10 04.01.10 08.01.10 - 08.01.10 08.01.10 08.01.10
_ Max-Zeit 12:53 09:53 00:53 00:53 22:53 - 10:53 12:53 22:53
Maximum _ 1,1 C 93 % 1016,0 hPa 0,0 l/m 12,6 km/h
N-NO
- -1,7 C 1,1 C 12,6 km/h
N-NO
Durchschnitt _ -3,1 C 87 % 1006,7 hPa #0,0 l/m 0,6 km/h O-SO -5,1 C -3,2 C 0,6 km/h